createdAt,value
2023-05-05T00:00:21.733Z,17.16
2023-05-05T00:02:52.832Z,17.06
2023-05-05T00:05:24.822Z,17.05
2023-05-05T00:07:55.203Z,17.02
2023-05-05T00:10:26.035Z,16.93
2023-05-05T00:12:56.574Z,16.85
2023-05-05T00:15:29.784Z,16.86
2023-05-05T00:18:00.618Z,16.87
2023-05-05T00:20:31.373Z,16.82
2023-05-05T00:23:01.845Z,16.80
2023-05-05T00:25:32.505Z,16.81
2023-05-05T00:28:03.105Z,16.81
2023-05-05T00:30:36.419Z,16.81
2023-05-05T00:33:07.026Z,16.80
2023-05-05T00:35:37.665Z,16.81
2023-05-05T00:38:08.167Z,16.83
2023-05-05T00:40:40.209Z,16.85
2023-05-05T00:43:10.554Z,16.82
2023-05-05T00:45:47.810Z,16.79
2023-05-05T00:48:20.096Z,16.74
2023-05-05T00:50:50.864Z,16.74
2023-05-05T00:53:21.306Z,16.72
2023-05-05T00:55:52.225Z,16.67
2023-05-05T00:58:23.062Z,16.60
2023-05-05T01:00:56.656Z,16.57
2023-05-05T01:03:27.165Z,16.54
2023-05-05T01:06:15.509Z,16.50
2023-05-05T01:09:04.542Z,16.46
2023-05-05T01:11:45.810Z,16.43
2023-05-05T01:14:19.234Z,16.41
2023-05-05T01:17:02.297Z,16.39
2023-05-05T01:19:56.517Z,16.39
2023-05-05T01:22:37.711Z,16.36
2023-05-05T01:25:44.176Z,16.35
2023-05-05T01:28:30.519Z,16.29
2023-05-05T01:31:12.687Z,16.27
2023-05-05T01:33:52.667Z,16.19
2023-05-05T01:36:29.606Z,16.16
2023-05-05T01:39:03.913Z,16.12
2023-05-05T01:41:43.936Z,16.10
2023-05-05T01:44:16.845Z,16.10
2023-05-05T01:46:51.091Z,16.03
2023-05-05T01:49:24.789Z,16.03
2023-05-05T01:51:55.749Z,16.01
2023-05-05T01:54:27.448Z,15.99
2023-05-05T01:57:00.407Z,15.99
2023-05-05T01:59:31.936Z,15.94
2023-05-05T02:02:05.754Z,15.82
2023-05-05T02:04:44.349Z,15.75
2023-05-05T02:07:17.122Z,15.75
2023-05-05T02:09:48.169Z,15.78
2023-05-05T02:12:19.769Z,15.80
2023-05-05T02:14:50.660Z,15.79
2023-05-05T02:17:24.289Z,15.81
2023-05-05T02:19:59.107Z,15.83
2023-05-05T02:22:29.629Z,15.79
2023-05-05T02:25:00.109Z,15.71
2023-05-05T02:27:31.593Z,15.53
2023-05-05T02:30:07.693Z,15.45
2023-05-05T02:32:43.173Z,15.32
2023-05-05T02:35:21.320Z,15.23
2023-05-05T02:38:01.977Z,15.14
2023-05-05T02:40:39.417Z,15.06
2023-05-05T02:43:14.002Z,15.05
2023-05-05T02:45:44.393Z,15.09
2023-05-05T02:48:15.754Z,15.08
2023-05-05T02:50:49.036Z,15.05
2023-05-05T02:53:30.296Z,15.06
2023-05-05T02:56:11.342Z,15.10
2023-05-05T02:58:56.952Z,15.12
2023-05-05T03:01:51.426Z,15.11
2023-05-05T03:04:30.696Z,15.07
2023-05-05T03:07:13.576Z,15.06
2023-05-05T03:09:53.267Z,15.03
2023-05-05T03:12:30.611Z,14.95
2023-05-05T03:15:13.234Z,14.92
2023-05-05T03:17:45.116Z,14.88
2023-05-05T03:20:17.948Z,14.87
2023-05-05T03:22:54.970Z,14.88
2023-05-05T03:25:25.754Z,14.84
2023-05-05T03:27:56.614Z,14.78
2023-05-05T03:30:27.208Z,14.74
2023-05-05T03:32:57.729Z,14.74
2023-05-05T03:35:28.832Z,14.77
2023-05-05T03:38:01.870Z,14.80
2023-05-05T03:40:43.095Z,14.84
2023-05-05T03:43:16.525Z,14.87
2023-05-05T03:45:47.228Z,14.87
2023-05-05T03:48:17.983Z,14.83
2023-05-05T03:50:48.594Z,14.81
2023-05-05T03:53:23.320Z,14.86
2023-05-05T03:55:54.771Z,14.89
2023-05-05T03:58:25.426Z,14.90
2023-05-05T04:00:55.925Z,14.91
2023-05-05T04:03:26.603Z,14.91
2023-05-05T04:05:57.108Z,14.96
2023-05-05T04:08:30.671Z,14.89
2023-05-05T04:11:02.619Z,14.89
2023-05-05T04:13:34.567Z,14.85
2023-05-05T04:16:06.218Z,14.81
2023-05-05T04:18:36.719Z,14.77
2023-05-05T04:21:08.401Z,14.75
2023-05-05T04:23:41.546Z,14.78
2023-05-05T04:26:12.181Z,14.82
2023-05-05T04:28:43.092Z,14.85
2023-05-05T04:31:13.853Z,14.86
2023-05-05T04:33:46.389Z,14.83
2023-05-05T04:36:19.161Z,14.82
2023-05-05T04:38:53.505Z,14.81
2023-05-05T04:41:24.183Z,14.81
2023-05-05T04:43:55.318Z,14.80
2023-05-05T04:46:25.741Z,14.78
2023-05-05T04:48:56.575Z,14.82
2023-05-05T04:51:27.861Z,14.80
2023-05-05T04:54:01.173Z,14.75
2023-05-05T04:56:34.398Z,14.75
2023-05-05T04:59:04.940Z,14.74
2023-05-05T05:01:38.347Z,14.83
2023-05-05T05:04:08.988Z,14.80
2023-05-05T05:06:39.615Z,14.84
2023-05-05T05:09:12.817Z,14.84
2023-05-05T05:11:43.263Z,14.86
2023-05-05T05:14:13.788Z,14.89
2023-05-05T05:16:44.322Z,14.83
2023-05-05T05:19:14.854Z,14.86
2023-05-05T05:21:45.238Z,14.85
2023-05-05T05:24:18.454Z,14.90
2023-05-05T05:26:49.063Z,14.90
2023-05-05T05:29:20.482Z,14.89
2023-05-05T05:31:51.797Z,14.88
2023-05-05T05:34:22.261Z,14.92
2023-05-05T05:36:53.091Z,14.96
2023-05-05T05:39:26.370Z,14.98
2023-05-05T05:41:57.282Z,15.01
2023-05-05T05:44:27.927Z,15.08
2023-05-05T05:46:58.268Z,15.16
2023-05-05T05:49:29.195Z,15.21
2023-05-05T05:51:59.625Z,15.20
2023-05-05T05:54:34.575Z,15.25
2023-05-05T05:57:07.123Z,15.28
2023-05-05T05:59:37.672Z,15.34
2023-05-05T06:02:09.894Z,15.40
2023-05-05T06:04:40.415Z,15.41
2023-05-05T06:07:10.858Z,15.52
2023-05-05T06:09:44.064Z,15.56
2023-05-05T06:12:14.676Z,15.60
2023-05-05T06:14:45.439Z,15.62
2023-05-05T06:17:15.832Z,15.63
2023-05-05T06:19:46.439Z,15.67
2023-05-05T06:22:16.982Z,15.70
2023-05-05T06:24:51.369Z,15.74
2023-05-05T06:27:22.973Z,15.80
2023-05-05T06:29:53.377Z,15.88
2023-05-05T06:32:23.766Z,15.96
2023-05-05T06:34:54.412Z,16.04
2023-05-05T06:37:24.738Z,16.11
2023-05-05T06:39:57.950Z,16.20
2023-05-05T06:42:28.396Z,16.31
2023-05-05T06:45:00.964Z,16.37
2023-05-05T06:47:31.493Z,16.43
2023-05-05T06:50:02.015Z,16.53
2023-05-05T06:52:32.656Z,16.54
2023-05-05T06:55:05.590Z,16.54
2023-05-05T06:57:36.267Z,16.54
2023-05-05T07:00:11.583Z,16.57
2023-05-05T07:02:42.299Z,16.58
2023-05-05T07:05:13.325Z,16.61
2023-05-05T07:07:54.219Z,16.70
2023-05-05T07:10:28.595Z,16.74
2023-05-05T07:12:58.991Z,16.77
2023-05-05T07:15:29.962Z,16.82
2023-05-05T07:18:00.682Z,16.85
2023-05-05T07:20:31.653Z,16.92
2023-05-05T07:23:02.033Z,16.92
2023-05-05T07:25:35.293Z,17.04
2023-05-05T07:28:06.027Z,17.03
2023-05-05T07:30:36.438Z,17.03
2023-05-05T07:33:07.228Z,17.04
2023-05-05T07:35:37.690Z,17.06
2023-05-05T07:38:08.800Z,17.05
2023-05-05T07:40:43.820Z,17.09
2023-05-05T07:43:14.271Z,17.15
2023-05-05T07:45:44.874Z,17.17
2023-05-05T07:48:15.375Z,17.21
2023-05-05T07:50:45.817Z,17.27
2023-05-05T07:53:17.229Z,17.26
2023-05-05T07:55:50.196Z,17.30
2023-05-05T07:58:20.927Z,17.29
2023-05-05T08:00:51.480Z,17.29
2023-05-05T08:03:25.076Z,17.36
2023-05-05T08:05:57.621Z,17.34
2023-05-05T08:08:28.284Z,17.38
2023-05-05T08:11:01.392Z,17.40
2023-05-05T08:13:33.049Z,17.38
2023-05-05T08:16:03.615Z,17.34
2023-05-05T08:18:35.716Z,17.34
2023-05-05T08:21:06.405Z,17.35
2023-05-05T08:23:37.686Z,17.32
2023-05-05T08:26:11.330Z,17.30
2023-05-05T08:28:42.095Z,17.23
2023-05-05T08:31:12.537Z,17.22
2023-05-05T08:33:43.353Z,17.19
2023-05-05T08:36:14.000Z,17.21
2023-05-05T08:38:44.475Z,17.16
2023-05-05T08:41:21.728Z,17.14
2023-05-05T08:43:53.177Z,17.11
2023-05-05T08:46:23.912Z,17.12
2023-05-05T08:48:58.763Z,17.12
2023-05-05T08:51:34.353Z,17.13
2023-05-05T08:54:07.079Z,17.19
2023-05-05T08:56:44.385Z,17.24
2023-05-05T08:59:16.650Z,17.26
2023-05-05T09:01:47.924Z,17.34
2023-05-05T09:04:19.346Z,17.39
2023-05-05T09:06:49.983Z,17.46
2023-05-05T09:09:20.768Z,17.51
2023-05-05T09:11:55.581Z,17.61
2023-05-05T09:14:25.765Z,17.70
2023-05-05T09:16:56.374Z,17.75
2023-05-05T09:19:26.835Z,17.84
2023-05-05T09:21:57.455Z,17.87
2023-05-05T09:24:27.824Z,18.02
2023-05-05T09:27:01.879Z,18.07
2023-05-05T09:29:32.795Z,18.06
2023-05-05T09:32:09.123Z,18.15
2023-05-05T09:34:40.317Z,18.17
2023-05-05T09:37:10.925Z,18.19
2023-05-05T09:39:57.413Z,18.26
2023-05-05T09:42:30.572Z,18.32
2023-05-05T09:45:00.992Z,18.40
2023-05-05T09:47:38.194Z,18.47
2023-05-05T09:50:11.489Z,18.53
2023-05-05T09:52:42.084Z,18.56
2023-05-05T09:55:21.188Z,18.58
2023-05-05T09:57:54.223Z,18.67
2023-05-05T10:00:25.186Z,18.80
2023-05-05T10:03:05.691Z,19.01
2023-05-05T10:05:36.358Z,19.04
2023-05-05T10:08:16.626Z,19.04
2023-05-05T10:10:53.428Z,19.04
2023-05-05T10:13:27.986Z,18.94
2023-05-05T10:16:00.705Z,18.88
2023-05-05T10:18:34.305Z,18.81
2023-05-05T10:21:06.730Z,18.89
2023-05-05T10:23:42.928Z,18.87
2023-05-05T10:26:17.656Z,18.88
2023-05-05T10:28:55.472Z,18.92
2023-05-05T10:31:33.404Z,18.97
2023-05-05T10:34:07.119Z,18.98
2023-05-05T10:36:39.068Z,19.01
2023-05-05T10:39:11.099Z,19.06
2023-05-05T10:41:41.911Z,19.06
2023-05-05T10:44:17.737Z,19.06
2023-05-05T10:46:49.157Z,19.04
2023-05-05T10:49:31.541Z,19.03
2023-05-05T10:52:13.047Z,19.05
2023-05-05T10:54:52.228Z,19.09
2023-05-05T10:57:29.063Z,19.00
2023-05-05T11:00:02.234Z,19.01
2023-05-05T11:02:33.761Z,19.05
2023-05-05T11:05:17.138Z,19.00
2023-05-05T11:07:49.438Z,19.02
2023-05-05T11:10:23.527Z,19.05
2023-05-05T11:13:22.927Z,19.10
2023-05-05T11:15:57.371Z,19.19
2023-05-05T11:18:43.623Z,19.31
2023-05-05T11:21:19.724Z,19.38
2023-05-05T11:23:54.894Z,19.38
2023-05-05T11:26:54.125Z,19.47
2023-05-05T11:29:25.027Z,19.53
2023-05-05T11:32:20.141Z,19.59
2023-05-05T11:34:53.799Z,19.61
2023-05-05T11:37:27.101Z,19.75
2023-05-05T11:40:19.016Z,19.85
2023-05-05T11:42:50.496Z,20.04
2023-05-05T11:45:26.773Z,20.23
2023-05-05T11:48:29.093Z,20.31
2023-05-05T11:51:02.503Z,20.37
2023-05-05T11:53:33.135Z,20.38
2023-05-05T11:56:11.043Z,20.46
2023-05-05T11:58:42.140Z,20.51
2023-05-05T12:01:13.443Z,20.64
2023-05-05T12:03:46.929Z,20.91
2023-05-05T12:06:17.470Z,21.12
2023-05-05T12:08:48.064Z,21.22
2023-05-05T12:11:18.523Z,21.19
2023-05-05T12:13:48.972Z,21.34
2023-05-05T12:16:20.150Z,21.53
2023-05-05T12:19:07.798Z,21.66
2023-05-05T12:21:38.827Z,21.77
2023-05-05T12:24:10.757Z,21.82
2023-05-05T12:26:41.442Z,21.89
2023-05-05T12:29:11.957Z,21.90
2023-05-05T12:31:44.480Z,21.76
2023-05-05T12:34:18.875Z,21.58
2023-05-05T12:36:49.464Z,21.49
2023-05-05T12:39:19.996Z,21.55
2023-05-05T12:41:50.745Z,21.55
2023-05-05T12:44:21.237Z,21.61
2023-05-05T12:46:54.686Z,21.70
2023-05-05T12:49:27.721Z,21.77
2023-05-05T12:52:00.378Z,21.78
2023-05-05T12:54:32.536Z,21.92
2023-05-05T12:57:14.799Z,22.04
2023-05-05T12:59:45.388Z,22.25
2023-05-05T13:02:16.470Z,22.42
2023-05-05T13:04:57.480Z,22.40
2023-05-05T13:07:27.841Z,22.50
2023-05-05T13:10:11.313Z,22.60
2023-05-05T13:12:42.080Z,22.81
2023-05-05T13:15:15.328Z,22.82
2023-05-05T13:17:45.871Z,23.14
2023-05-05T13:20:19.227Z,23.28
2023-05-05T13:22:49.566Z,23.44
2023-05-05T13:25:20.258Z,23.62
2023-05-05T13:27:50.757Z,23.79
2023-05-05T13:30:21.149Z,23.99
2023-05-05T13:32:51.659Z,23.94
2023-05-05T13:35:24.807Z,24.02
2023-05-05T13:37:55.415Z,24.33
2023-05-05T13:40:26.322Z,24.56
2023-05-05T13:42:56.849Z,25.03
2023-05-05T13:45:27.250Z,25.39
2023-05-05T13:47:57.754Z,25.87
2023-05-05T13:50:30.768Z,26.18
2023-05-05T13:53:01.303Z,26.31
2023-05-05T13:55:31.987Z,26.35
2023-05-05T13:58:02.512Z,26.24
2023-05-05T14:00:33.122Z,26.05
2023-05-05T14:03:03.778Z,25.94
2023-05-05T14:05:37.964Z,25.54
2023-05-05T14:08:08.649Z,25.39
2023-05-05T14:10:40.433Z,25.27
2023-05-05T14:13:10.903Z,25.09
2023-05-05T14:15:41.363Z,24.92
2023-05-05T14:18:11.771Z,24.63
2023-05-05T14:20:45.044Z,24.54
2023-05-05T14:23:15.505Z,24.23
2023-05-05T14:25:46.275Z,24.19
2023-05-05T14:28:16.685Z,24.11
2023-05-05T14:30:47.165Z,23.97
2023-05-05T14:33:17.521Z,23.94
2023-05-05T14:35:50.573Z,23.86
2023-05-05T14:38:21.096Z,23.85
2023-05-05T14:40:51.693Z,23.82
2023-05-05T14:43:22.074Z,23.74
2023-05-05T14:45:52.883Z,23.61
2023-05-05T14:48:23.386Z,23.59
2023-05-05T14:50:56.557Z,23.61
2023-05-05T14:53:27.274Z,23.54
2023-05-05T14:55:57.890Z,23.44
2023-05-05T14:58:28.292Z,23.39
2023-05-05T15:00:59.207Z,23.31
2023-05-05T15:03:29.815Z,23.27
2023-05-05T15:06:03.330Z,23.14
2023-05-05T15:08:33.937Z,23.06
2023-05-05T15:11:04.638Z,22.99
2023-05-05T15:13:35.622Z,22.97
2023-05-05T15:16:06.088Z,22.94
2023-05-05T15:18:36.642Z,22.85
2023-05-05T15:21:09.805Z,22.76
2023-05-05T15:23:40.170Z,22.73
2023-05-05T15:26:10.715Z,22.67
2023-05-05T15:28:41.376Z,22.61
2023-05-05T15:31:12.113Z,22.61
2023-05-05T15:33:44.824Z,22.62
2023-05-05T15:36:22.837Z,22.57
2023-05-05T15:38:53.254Z,22.50
2023-05-05T15:41:23.768Z,22.42
2023-05-05T15:43:54.257Z,22.39
2023-05-05T15:46:24.987Z,22.32
2023-05-05T15:48:55.371Z,22.30
2023-05-05T15:51:28.712Z,22.21
2023-05-05T15:53:59.616Z,22.18
2023-05-05T15:56:30.184Z,22.13
2023-05-05T15:59:00.572Z,22.10
2023-05-05T16:01:31.126Z,22.08
2023-05-05T16:04:01.542Z,22.07
2023-05-05T16:06:34.663Z,22.01
2023-05-05T16:09:05.213Z,21.92
2023-05-05T16:11:35.609Z,22.00
2023-05-05T16:14:06.251Z,21.86
2023-05-05T16:16:36.729Z,21.71
2023-05-05T16:19:07.452Z,21.65
2023-05-05T16:21:40.470Z,21.60
2023-05-05T16:24:16.212Z,21.51
2023-05-05T16:26:47.040Z,21.45
2023-05-05T16:29:17.746Z,21.39
2023-05-05T16:31:48.114Z,21.37
2023-05-05T16:34:18.547Z,21.34
2023-05-05T16:36:51.529Z,21.29
2023-05-05T16:39:21.887Z,21.16
2023-05-05T16:41:52.634Z,21.20
2023-05-05T16:44:23.074Z,21.15
2023-05-05T16:46:53.633Z,21.06
2023-05-05T16:49:24.417Z,20.72
2023-05-05T16:51:57.398Z,20.39
2023-05-05T16:54:28.048Z,20.11
2023-05-05T16:56:58.548Z,19.95
2023-05-05T16:59:30.347Z,19.78
2023-05-05T17:02:02.042Z,19.52
2023-05-05T17:04:32.733Z,19.30
2023-05-05T17:07:05.989Z,19.22
2023-05-05T17:09:36.320Z,19.16
2023-05-05T17:12:07.161Z,19.19
2023-05-05T17:14:37.568Z,19.12
2023-05-05T17:17:08.228Z,19.16
2023-05-05T17:19:38.585Z,19.17
2023-05-05T17:22:11.983Z,19.16
2023-05-05T17:24:43.189Z,19.14
2023-05-05T17:27:13.672Z,19.13
2023-05-05T17:29:44.176Z,19.10
2023-05-05T17:32:14.855Z,18.99
2023-05-05T17:34:45.334Z,18.98
2023-05-05T17:37:18.369Z,18.87
2023-05-05T17:39:48.826Z,18.84
2023-05-05T17:42:23.091Z,18.86
2023-05-05T17:44:53.693Z,18.84
2023-05-05T17:47:24.428Z,18.75
2023-05-05T17:49:58.006Z,18.68
2023-05-05T17:52:31.430Z,18.71
2023-05-05T17:55:02.049Z,18.63
2023-05-05T17:57:32.494Z,18.64
2023-05-05T18:00:07.440Z,18.55
2023-05-05T18:02:43.936Z,18.49
2023-05-05T18:05:14.585Z,18.49
2023-05-05T18:07:47.670Z,18.45
2023-05-05T18:10:18.104Z,18.41
2023-05-05T18:12:48.708Z,18.38
2023-05-05T18:15:19.325Z,18.34
2023-05-05T18:17:49.828Z,18.26
2023-05-05T18:20:20.533Z,18.22
2023-05-05T18:22:53.583Z,18.20
2023-05-05T18:25:24.281Z,18.21
2023-05-05T18:27:54.674Z,18.16
2023-05-05T18:30:25.262Z,18.12
2023-05-05T18:32:55.880Z,18.12
2023-05-05T18:35:26.272Z,18.10
2023-05-05T18:37:59.342Z,18.09
2023-05-05T18:40:29.868Z,18.06
2023-05-05T18:43:00.274Z,18.02
2023-05-05T18:45:30.859Z,18.01
2023-05-05T18:48:01.625Z,17.98
2023-05-05T18:50:33.434Z,17.96
2023-05-05T18:53:06.853Z,18.03
2023-05-05T18:55:37.286Z,17.93
2023-05-05T18:58:07.711Z,17.88
2023-05-05T19:00:38.239Z,17.84
2023-05-05T19:03:08.920Z,17.79
2023-05-05T19:05:40.827Z,17.84
2023-05-05T19:08:14.018Z,17.82
2023-05-05T19:10:44.592Z,17.74
2023-05-05T19:13:15.072Z,17.65
2023-05-05T19:15:45.615Z,17.61
2023-05-05T19:18:16.314Z,17.62
2023-05-05T19:20:46.719Z,17.61
2023-05-05T19:23:19.681Z,17.61
2023-05-05T19:25:50.120Z,17.57
2023-05-05T19:28:20.528Z,17.55
2023-05-05T19:30:51.054Z,17.55
2023-05-05T19:33:21.490Z,17.52
2023-05-05T19:35:52.136Z,17.49
2023-05-05T19:38:25.234Z,17.54
2023-05-05T19:40:56.508Z,17.52
2023-05-05T19:43:26.870Z,17.54
2023-05-05T19:45:57.512Z,17.46
2023-05-05T19:48:28.123Z,17.31
2023-05-05T19:50:58.584Z,17.26
2023-05-05T19:53:31.570Z,17.24
2023-05-05T19:56:02.498Z,17.19
2023-05-05T19:58:33.022Z,17.19
2023-05-05T20:01:03.510Z,17.19
2023-05-05T20:03:34.086Z,17.15
2023-05-05T20:06:04.729Z,17.11
2023-05-05T20:08:37.721Z,17.09
2023-05-05T20:11:08.107Z,17.09
2023-05-05T20:13:39.157Z,17.11
2023-05-05T20:16:10.350Z,17.10
2023-05-05T20:18:40.920Z,17.07
2023-05-05T20:21:11.454Z,17.08
2023-05-05T20:23:45.315Z,17.05
2023-05-05T20:26:16.075Z,17.00
2023-05-05T20:28:46.422Z,16.92
2023-05-05T20:31:17.619Z,16.83
2023-05-05T20:33:48.196Z,16.80
2023-05-05T20:36:18.998Z,16.79
2023-05-05T20:38:52.132Z,16.69
2023-05-05T20:41:22.534Z,16.64
2023-05-05T20:43:52.929Z,16.61
2023-05-05T20:46:23.348Z,16.61
2023-05-05T20:48:53.712Z,16.60
2023-05-05T20:51:24.154Z,16.59
2023-05-05T20:53:57.180Z,16.55
2023-05-05T20:56:27.549Z,16.54
2023-05-05T20:58:57.967Z,16.53
2023-05-05T21:01:28.672Z,16.51
2023-05-05T21:04:00.589Z,16.53
2023-05-05T21:06:31.018Z,16.44
2023-05-05T21:09:03.971Z,16.42
2023-05-05T21:11:34.665Z,16.39
2023-05-05T21:14:06.862Z,16.39
2023-05-05T21:16:37.337Z,16.37
2023-05-05T21:19:07.796Z,16.39
2023-05-05T21:21:38.397Z,16.44
2023-05-05T21:24:13.041Z,16.48
2023-05-05T21:26:45.819Z,16.44
2023-05-05T21:29:16.336Z,16.42
2023-05-05T21:31:46.923Z,16.42
2023-05-05T21:34:17.454Z,16.37
2023-05-05T21:36:47.869Z,16.31
2023-05-05T21:39:20.988Z,16.30
2023-05-05T21:41:51.326Z,16.27
2023-05-05T21:44:21.910Z,16.27
2023-05-05T21:46:52.242Z,16.27
2023-05-05T21:49:23.060Z,16.26
2023-05-05T21:51:53.779Z,16.24
2023-05-05T21:54:26.755Z,16.21
2023-05-05T21:56:57.172Z,16.12
2023-05-05T21:59:27.866Z,16.06
2023-05-05T22:01:58.293Z,16.04
2023-05-05T22:04:28.735Z,16.06
2023-05-05T22:06:59.218Z,16.07
2023-05-05T22:09:32.211Z,16.08
2023-05-05T22:12:02.793Z,16.09
2023-05-05T22:14:33.230Z,16.11
2023-05-05T22:17:03.752Z,16.12
2023-05-05T22:19:34.213Z,16.09
2023-05-05T22:22:04.843Z,16.06
2023-05-05T22:24:37.809Z,16.01
2023-05-05T22:27:08.271Z,16.01
2023-05-05T22:29:39.099Z,16.02
2023-05-05T22:32:09.674Z,16.01
2023-05-05T22:34:40.086Z,16.01
2023-05-05T22:37:10.441Z,15.96
2023-05-05T22:39:43.418Z,15.92
2023-05-05T22:42:13.880Z,15.92
2023-05-05T22:44:44.276Z,15.89
2023-05-05T22:47:14.750Z,15.89
2023-05-05T22:49:45.334Z,15.87
2023-05-05T22:52:15.796Z,15.81
2023-05-05T22:54:48.776Z,15.81
2023-05-05T22:57:19.173Z,15.79
2023-05-05T22:59:49.627Z,15.79
2023-05-05T23:02:20.256Z,15.76
2023-05-05T23:04:51.303Z,15.78
2023-05-05T23:07:22.051Z,15.77
2023-05-05T23:09:55.094Z,15.80
2023-05-05T23:12:25.631Z,15.80
2023-05-05T23:14:56.068Z,15.83
2023-05-05T23:17:26.613Z,15.78
2023-05-05T23:19:57.014Z,15.74
2023-05-05T23:22:27.536Z,15.63
2023-05-05T23:25:00.490Z,15.55
2023-05-05T23:27:30.933Z,15.55
2023-05-05T23:30:01.479Z,15.53
2023-05-05T23:32:32.061Z,15.49
2023-05-05T23:35:02.605Z,15.47
2023-05-05T23:37:33.115Z,15.44
2023-05-05T23:40:06.992Z,15.43
2023-05-05T23:42:37.322Z,15.37
2023-05-05T23:45:09.161Z,15.35
2023-05-05T23:47:39.805Z,15.32
2023-05-05T23:50:12.537Z,15.33
2023-05-05T23:52:42.922Z,15.32
2023-05-05T23:55:15.816Z,15.31
2023-05-05T23:57:46.300Z,15.29
